Time;durP1;ratioP1;P1;durP2;ratioP2;P2;SDS_P1;SDS_P2;PMS_P1;PMS_P2;Temp;Humidity;BMP_temperature;BMP_pressure;BME280_temperature;BME280_humidity;BME280_pressure;Samples;Min_cycle;Max_cycle;Signal;HPM_P1;HPM_P2
2022/11/10 00:02:06;;;;;;;4.97;2.60;;;;;;;;;;4976612;28;20046;-75
2022/11/10 00:04:32;;;;;;;4.45;2.10;;;;;;;;;;4962939;28;20078;-76
2022/11/10 00:06:58;;;;;;;5.78;2.15;;;;;;;;;;4980938;28;20022;-74
2022/11/10 00:09:24;;;;;;;4.68;2.45;;;;;;;;;;4974986;28;20069;-75
2022/11/10 00:11:50;;;;;;;8.13;2.63;;;;;;;;;;4974176;28;20392;-74
2022/11/10 00:17:01;;;;;;;9.15;2.45;;;;;;;;;;4959231;28;20077;-77
2022/11/10 00:19:28;;;;;;;7.28;2.40;;;;;;;;;;4974702;28;20023;-75
2022/11/10 00:21:54;;;;;;;8.88;3.22;;;;;;;;;;4970379;28;20026;-75
2022/11/10 00:24:20;;;;;;;6.18;2.72;;;;;;;;;;4974672;28;20027;-75
2022/11/10 00:26:46;;;;;;;11.00;2.88;;;;;;;;;;4973692;28;20041;-75
2022/11/10 00:29:12;;;;;;;4.80;2.45;;;;;;;;;;4961016;28;20065;-74
2022/11/10 00:31:39;;;;;;;7.63;2.70;;;;;;;;;;4960933;28;20020;-74
2022/11/10 00:34:06;;;;;;;8.05;2.88;;;;;;;;;;4968718;28;20106;-74
2022/11/10 00:36:34;;;;;;;7.38;3.35;;;;;;;;;;4976489;28;20360;-75
2022/11/10 00:39:00;;;;;;;9.00;2.75;;;;;;;;;;4970588;28;20031;-74
2022/11/10 00:41:26;;;;;;;7.30;2.60;;;;;;;;;;4971906;28;20039;-74
2022/11/10 00:43:52;;;;;;;9.82;3.13;;;;;;;;;;4968675;28;20392;-77
2022/11/10 00:46:18;;;;;;;11.15;2.75;;;;;;;;;;4974809;28;20019;-74
2022/11/10 00:48:44;;;;;;;8.23;2.60;;;;;;;;;;4969079;28;20032;-75
2022/11/10 00:51:15;;;;;;;7.68;3.03;;;;;;;;;;4978690;28;20027;-74
2022/11/10 00:53:41;;;;;;;8.35;2.72;;;;;;;;;;4984704;28;20034;-76
2022/11/10 00:56:07;;;;;;;8.13;2.65;;;;;;;;;;4977028;28;20038;-75
2022/11/10 00:58:33;;;;;;;6.78;2.60;;;;;;;;;;4977209;28;20022;-74
2022/11/10 01:01:03;;;;;;;6.18;2.60;;;;;;;;;;4967398;28;20029;-75
2022/11/10 01:03:29;;;;;;;6.95;2.83;;;;;;;;;;4969062;28;20409;-73
2022/11/10 01:05:55;;;;;;;6.53;2.92;;;;;;;;;;4978175;28;20019;-75
2022/11/10 01:08:21;;;;;;;8.35;3.40;;;;;;;;;;4958760;28;20532;-75
2022/11/10 01:10:47;;;;;;;9.40;3.20;;;;;;;;;;4977343;28;20551;-75
2022/11/10 01:13:13;;;;;;;4.80;3.78;;;;;;;;;;4974468;28;20046;-74
2022/11/10 01:15:40;;;;;;;11.02;3.10;;;;;;;;;;4964788;28;20023;-75
2022/11/10 01:18:06;;;;;;;6.95;2.67;;;;;;;;;;4964872;28;20522;-73
2022/11/10 01:20:33;;;;;;;11.40;3.22;;;;;;;;;;4969268;28;20050;-74
2022/11/10 01:22:59;;;;;;;8.18;2.97;;;;;;;;;;4970438;28;20108;-75
2022/11/10 01:25:25;;;;;;;7.50;3.17;;;;;;;;;;4971017;28;20373;-74
2022/11/10 01:27:51;;;;;;;8.77;2.65;;;;;;;;;;4974822;28;20039;-74
2022/11/10 01:30:18;;;;;;;5.25;2.55;;;;;;;;;;4972989;28;20058;-75
2022/11/10 01:32:44;;;;;;;10.18;3.08;;;;;;;;;;4981055;28;20125;-74
2022/11/10 01:35:11;;;;;;;4.72;2.20;;;;;;;;;;4994617;28;20475;-76
2022/11/10 01:37:37;;;;;;;8.80;3.35;;;;;;;;;;4976448;28;20034;-73
2022/11/10 01:40:04;;;;;;;13.80;3.33;;;;;;;;;;4973085;28;20026;-76
2022/11/10 01:42:59;;;;;;;7.53;2.40;;;;;;;;;;4970166;28;20081;-74
2022/11/10 01:45:25;;;;;;;6.95;2.70;;;;;;;;;;4977696;28;20515;-78
2022/11/10 01:47:53;;;;;;;9.18;3.00;;;;;;;;;;4981363;28;20046;-75
2022/11/10 01:50:20;;;;;;;11.68;3.42;;;;;;;;;;4967116;28;20072;-74
2022/11/10 01:52:47;;;;;;;9.30;3.17;;;;;;;;;;4988499;28;20034;-74
2022/11/10 01:55:13;;;;;;;5.68;2.97;;;;;;;;;;4970561;28;20048;-74
2022/11/10 01:57:40;;;;;;;7.53;2.70;;;;;;;;;;4959343;28;20717;-74
2022/11/10 02:00:07;;;;;;;10.15;2.60;;;;;;;;;;4987247;28;20468;-73
2022/11/10 02:02:39;;;;;;;12.75;4.88;;;;;;;;;;4972665;28;20034;-74
2022/11/10 02:05:05;;;;;;;8.40;3.38;;;;;;;;;;4978556;28;20031;-75
2022/11/10 02:07:32;;;;;;;12.38;3.22;;;;;;;;;;4967705;28;20038;-74
2022/11/10 02:09:58;;;;;;;10.95;3.50;;;;;;;;;;4972547;28;20117;-75
2022/11/10 02:12:37;;;;;;;7.30;3.00;;;;;;;;;;4978742;28;20066;-74
2022/11/10 02:15:04;;;;;;;7.60;2.95;;;;;;;;;;4970192;28;20039;-75
2022/11/10 02:17:30;;;;;;;11.27;3.58;;;;;;;;;;4975673;28;20023;-75
2022/11/10 02:20:04;;;;;;;6.90;2.63;;;;;;;;;;4973045;28;20054;-74
2022/11/10 02:22:30;;;;;;;11.90;4.05;;;;;;;;;;4987488;28;20031;-75
2022/11/10 02:24:57;;;;;;;9.07;2.88;;;;;;;;;;4969879;28;20114;-75
2022/11/10 02:27:23;;;;;;;14.50;3.13;;;;;;;;;;4972091;28;20030;-73
2022/11/10 02:29:49;;;;;;;13.25;4.03;;;;;;;;;;4977604;28;20065;-75
2022/11/10 02:32:15;;;;;;;8.82;3.20;;;;;;;;;;4971821;28;20022;-75
2022/11/10 02:34:42;;;;;;;8.57;2.83;;;;;;;;;;4966842;28;20114;-75
2022/11/10 02:37:09;;;;;;;6.60;2.55;;;;;;;;;;4979653;28;20081;-76
2022/11/10 02:39:35;;;;;;;9.65;2.97;;;;;;;;;;4976662;28;20022;-74
2022/11/10 02:42:01;;;;;;;9.77;4.00;;;;;;;;;;4982352;28;20474;-78
2022/11/10 02:44:27;;;;;;;6.47;2.55;;;;;;;;;;4968124;28;20023;-77
2022/11/10 02:46:53;;;;;;;12.43;3.15;;;;;;;;;;4983746;28;20042;-78
2022/11/10 02:49:20;;;;;;;10.43;2.70;;;;;;;;;;4971171;28;20034;-74
2022/11/10 02:51:46;;;;;;;14.05;4.05;;;;;;;;;;4964435;28;20117;-75
2022/11/10 02:54:12;;;;;;;9.40;2.75;;;;;;;;;;4971866;28;20471;-74
2022/11/10 02:56:38;;;;;;;6.55;2.60;;;;;;;;;;4971191;28;20034;-75
2022/11/10 02:59:04;;;;;;;11.23;3.45;;;;;;;;;;4979667;28;20488;-74
2022/11/10 03:01:30;;;;;;;6.30;2.47;;;;;;;;;;4981664;28;20479;-75
2022/11/10 03:03:56;;;;;;;10.82;3.40;;;;;;;;;;4971755;28;20026;-74
2022/11/10 03:06:22;;;;;;;8.30;3.70;;;;;;;;;;4967473;28;20102;-75
2022/11/10 03:08:48;;;;;;;7.35;2.47;;;;;;;;;;4979924;28;20038;-74
2022/11/10 03:11:14;;;;;;;11.35;3.33;;;;;;;;;;4980933;28;20042;-75
2022/11/10 03:13:40;;;;;;;6.93;3.13;;;;;;;;;;4981800;28;20039;-77
2022/11/10 03:16:07;;;;;;;11.98;3.53;;;;;;;;;;4967528;28;20231;-75
2022/11/10 03:18:33;;;;;;;7.97;2.83;;;;;;;;;;4974482;28;20516;-76
2022/11/10 03:20:59;;;;;;;11.50;2.80;;;;;;;;;;4972591;28;20014;-79
2022/11/10 03:23:25;;;;;;;5.75;3.45;;;;;;;;;;4970934;28;20495;-75
2022/11/10 03:25:51;;;;;;;10.55;4.15;;;;;;;;;;4967733;28;20558;-78
2022/11/10 03:28:17;;;;;;;9.43;2.95;;;;;;;;;;4969987;28;20097;-76
2022/11/10 03:30:44;;;;;;;8.32;2.90;;;;;;;;;;4961388;28;20050;-76
2022/11/10 03:33:10;;;;;;;6.25;3.28;;;;;;;;;;4970271;28;20049;-76
2022/11/10 03:35:36;;;;;;;11.00;3.42;;;;;;;;;;4968138;28;20015;-75
2022/11/10 03:38:02;;;;;;;10.13;3.20;;;;;;;;;;4967506;28;20019;-75
2022/11/10 03:40:28;;;;;;;8.55;3.20;;;;;;;;;;4971986;28;20102;-75
2022/11/10 03:42:54;;;;;;;8.93;2.78;;;;;;;;;;4969156;28;20508;-74
2022/11/10 03:45:21;;;;;;;13.60;2.97;;;;;;;;;;4983635;28;20152;-78
2022/11/10 03:47:48;;;;;;;10.75;3.63;;;;;;;;;;4978177;28;20031;-77
2022/11/10 03:50:14;;;;;;;5.68;2.50;;;;;;;;;;4965979;28;20082;-77
2022/11/10 03:52:42;;;;;;;8.82;2.85;;;;;;;;;;4978396;28;20031;-75
2022/11/10 03:55:10;;;;;;;10.90;2.85;;;;;;;;;;4971888;28;20022;-75
2022/11/10 03:57:36;;;;;;;12.48;3.20;;;;;;;;;;4980235;28;20081;-74
2022/11/10 04:00:02;;;;;;;7.85;2.58;;;;;;;;;;4968249;28;20037;-74
2022/11/10 04:02:28;;;;;;;6.95;2.30;;;;;;;;;;4967689;28;20538;-74
2022/11/10 04:10:44;;;;;;;8.63;2.53;;;;;;;;;;4955416;28;20515;-74
2022/11/10 04:15:55;;;;;;;6.65;2.40;;;;;;;;;;4971899;28;20468;-75
2022/11/10 04:18:25;;;;;;;4.93;2.58;;;;;;;;;;4971380;28;20027;-77
2022/11/10 04:20:58;;;;;;;7.35;3.13;;;;;;;;;;4971728;28;20015;-74
2022/11/10 04:23:25;;;;;;;4.07;2.20;;;;;;;;;;4971716;28;20023;-75
2022/11/10 04:28:36;;;;;;;6.90;2.50;;;;;;;;;;4972132;28;20042;-75
2022/11/10 04:31:02;;;;;;;5.07;2.60;;;;;;;;;;4966706;28;20473;-74
2022/11/10 04:33:29;;;;;;;6.47;2.30;;;;;;;;;;4957331;28;20513;-76
2022/11/10 04:35:55;;;;;;;10.65;3.45;;;;;;;;;;4982944;28;20085;-74
2022/11/10 04:38:21;;;;;;;7.13;2.40;;;;;;;;;;4985780;28;20716;-77
2022/11/10 04:40:47;;;;;;;9.57;2.30;;;;;;;;;;4965445;28;20031;-74
2022/11/10 04:43:13;;;;;;;7.65;2.40;;;;;;;;;;4971836;28;20037;-75
2022/11/10 04:45:39;;;;;;;8.40;2.63;;;;;;;;;;4971320;28;20044;-74
2022/11/10 04:48:05;;;;;;;5.75;2.28;;;;;;;;;;4962784;28;20027;-75
2022/11/10 04:50:32;;;;;;;7.05;2.78;;;;;;;;;;4987027;28;20400;-74
2022/11/10 04:52:58;;;;;;;4.15;2.03;;;;;;;;;;4972108;28;20023;-74
2022/11/10 04:55:24;;;;;;;4.90;2.35;;;;;;;;;;4987759;28;20031;-76
2022/11/10 04:57:50;;;;;;;6.63;2.67;;;;;;;;;;4974856;28;20101;-78
2022/11/10 05:00:16;;;;;;;5.03;2.33;;;;;;;;;;4974015;28;20483;-74
2022/11/10 05:02:42;;;;;;;3.83;1.95;;;;;;;;;;4973982;28;20026;-75
2022/11/10 05:05:09;;;;;;;4.57;2.25;;;;;;;;;;4972400;28;20033;-78
2022/11/10 05:07:35;;;;;;;3.55;1.83;;;;;;;;;;4992538;28;20023;-74
2022/11/10 05:10:01;;;;;;;8.35;2.63;;;;;;;;;;4971062;28;20053;-77
2022/11/10 05:12:27;;;;;;;3.25;1.63;;;;;;;;;;4972236;28;20020;-75
2022/11/10 05:14:54;;;;;;;4.28;1.90;;;;;;;;;;4992913;28;20049;-74
2022/11/10 05:17:21;;;;;;;5.88;2.03;;;;;;;;;;4985593;28;20027;-75
2022/11/10 05:19:47;;;;;;;3.33;1.63;;;;;;;;;;4971524;28;20031;-74
2022/11/10 05:22:13;;;;;;;4.28;1.63;;;;;;;;;;4974104;28;20038;-75
2022/11/10 05:24:39;;;;;;;4.50;1.63;;;;;;;;;;4974037;28;20042;-75
2022/11/10 05:27:07;;;;;;;1.77;1.50;;;;;;;;;;4975654;28;20057;-74
2022/11/10 05:29:33;;;;;;;3.97;1.60;;;;;;;;;;4966815;28;20030;-73
2022/11/10 05:31:59;;;;;;;2.05;1.42;;;;;;;;;;4968387;28;20057;-75
2022/11/10 05:34:25;;;;;;;2.13;1.35;;;;;;;;;;4982203;28;20047;-75
2022/11/10 05:36:51;;;;;;;1.20;1.20;;;;;;;;;;4984787;28;20476;-74
2022/11/10 05:39:17;;;;;;;2.05;1.50;;;;;;;;;;4986250;28;20082;-74
2022/11/10 05:41:43;;;;;;;3.45;1.45;;;;;;;;;;4972019;28;20476;-74
2022/11/10 05:44:09;;;;;;;4.38;1.77;;;;;;;;;;4974190;28;20046;-76
2022/11/10 05:46:36;;;;;;;4.65;1.52;;;;;;;;;;4979915;28;20059;-74
2022/11/10 05:49:02;;;;;;;2.85;1.45;;;;;;;;;;4985778;28;20404;-74
2022/11/10 05:51:28;;;;;;;2.47;1.40;;;;;;;;;;4983200;28;20030;-74
2022/11/10 05:53:54;;;;;;;4.45;2.05;;;;;;;;;;4973179;28;20018;-75
2022/11/10 05:56:20;;;;;;;1.95;1.67;;;;;;;;;;4980104;28;20074;-75
2022/11/10 05:58:46;;;;;;;3.15;1.50;;;;;;;;;;4972080;28;20560;-74
2022/11/10 06:01:12;;;;;;;2.22;2.00;;;;;;;;;;4967391;28;20025;-75
2022/11/10 06:03:38;;;;;;;2.85;1.55;;;;;;;;;;4964849;28;20034;-75
2022/11/10 06:06:04;;;;;;;2.17;1.42;;;;;;;;;;4985562;28;20038;-74
2022/11/10 06:08:32;;;;;;;5.53;1.90;;;;;;;;;;4978659;28;20074;-74
2022/11/10 06:10:58;;;;;;;3.65;1.30;;;;;;;;;;4978030;28;20058;-75
2022/11/10 06:13:24;;;;;;;4.85;2.50;;;;;;;;;;4964653;28;20031;-74
2022/11/10 06:15:51;;;;;;;3.88;1.63;;;;;;;;;;4977989;28;20107;-77
2022/11/10 06:18:17;;;;;;;5.05;2.00;;;;;;;;;;4965394;28;20456;-79
2022/11/10 06:20:43;;;;;;;3.55;1.48;;;;;;;;;;4972081;28;20469;-75
2022/11/10 06:23:10;;;;;;;1.73;1.35;;;;;;;;;;4972445;28;20030;-74
2022/11/10 06:25:37;;;;;;;5.05;1.60;;;;;;;;;;4975053;28;20035;-76
2022/11/10 06:28:04;;;;;;;3.38;1.88;;;;;;;;;;4963950;28;20035;-75
2022/11/10 06:30:31;;;;;;;2.20;1.55;;;;;;;;;;4977856;28;20432;-74
2022/11/10 06:32:58;;;;;;;2.47;1.65;;;;;;;;;;4967063;28;20027;-74
2022/11/10 06:35:24;;;;;;;3.50;1.67;;;;;;;;;;4967272;28;20030;-76
2022/11/10 06:37:57;;;;;;;2.65;1.45;;;;;;;;;;4968754;28;20453;-75
2022/11/10 06:40:23;;;;;;;3.75;1.88;;;;;;;;;;4966794;28;20081;-75
2022/11/10 06:42:49;;;;;;;2.50;1.60;;;;;;;;;;4982459;28;20038;-76
2022/11/10 06:45:16;;;;;;;4.40;1.83;;;;;;;;;;4967041;28;20174;-76
2022/11/10 06:47:42;;;;;;;2.85;1.70;;;;;;;;;;4967947;28;20039;-74
2022/11/10 06:50:08;;;;;;;3.55;1.60;;;;;;;;;;4959672;28;20384;-78
2022/11/10 06:52:35;;;;;;;1.92;1.50;;;;;;;;;;4968313;28;20038;-77
2022/11/10 06:55:01;;;;;;;4.07;2.22;;;;;;;;;;4964626;28;20155;-77
2022/11/10 06:57:27;;;;;;;3.72;1.70;;;;;;;;;;4974711;28;20053;-75
2022/11/10 06:59:54;;;;;;;3.88;2.58;;;;;;;;;;4965138;28;20043;-73
2022/11/10 07:02:20;;;;;;;4.10;1.80;;;;;;;;;;4965252;28;20104;-74
2022/11/10 07:04:49;;;;;;;5.20;2.05;;;;;;;;;;4981031;28;20027;-75
2022/11/10 07:07:15;;;;;;;2.75;1.63;;;;;;;;;;4968589;28;20100;-76
2022/11/10 07:09:41;;;;;;;4.90;1.70;;;;;;;;;;4964331;28;20035;-75
2022/11/10 07:12:08;;;;;;;4.03;1.60;;;;;;;;;;4981881;28;20034;-76
2022/11/10 07:14:34;;;;;;;5.80;1.95;;;;;;;;;;4983696;28;20035;-75
2022/11/10 07:17:00;;;;;;;3.97;2.10;;;;;;;;;;4969225;28;20035;-77
2022/11/10 07:19:26;;;;;;;4.28;1.90;;;;;;;;;;4970236;28;20054;-74
2022/11/10 07:21:52;;;;;;;7.38;2.15;;;;;;;;;;4965914;28;20031;-75
2022/11/10 07:24:18;;;;;;;5.10;2.03;;;;;;;;;;4968331;28;20058;-74
2022/11/10 07:26:44;;;;;;;3.42;2.55;;;;;;;;;;4967626;28;20145;-73
2022/11/10 07:29:10;;;;;;;2.90;2.25;;;;;;;;;;4980309;28;20038;-77
2022/11/10 07:31:36;;;;;;;3.50;1.83;;;;;;;;;;4983951;28;20034;-74
2022/11/10 07:34:03;;;;;;;3.75;1.83;;;;;;;;;;4960628;28;20031;-74
2022/11/10 07:36:29;;;;;;;2.35;1.50;;;;;;;;;;4965934;28;20083;-77
2022/11/10 07:38:55;;;;;;;3.47;1.70;;;;;;;;;;4967418;28;20130;-74
2022/11/10 07:41:21;;;;;;;3.35;1.90;;;;;;;;;;4983953;28;20510;-75
2022/11/10 07:43:47;;;;;;;3.20;1.55;;;;;;;;;;4961734;28;20034;-76
2022/11/10 07:46:13;;;;;;;4.22;1.65;;;;;;;;;;4974297;28;20420;-75
2022/11/10 07:48:39;;;;;;;5.15;1.98;;;;;;;;;;4962155;28;20061;-77
2022/11/10 07:51:05;;;;;;;4.45;1.70;;;;;;;;;;4968262;28;20374;-75
2022/11/10 07:53:32;;;;;;;4.10;1.67;;;;;;;;;;4983923;28;20042;-75
2022/11/10 07:55:58;;;;;;;4.57;1.80;;;;;;;;;;4965373;28;20034;-76
2022/11/10 07:58:24;;;;;;;4.35;1.80;;;;;;;;;;4980992;28;20057;-78
2022/11/10 08:00:51;;;;;;;4.63;2.33;;;;;;;;;;4967925;28;20038;-77
2022/11/10 08:03:18;;;;;;;2.78;1.65;;;;;;;;;;4967017;28;20366;-78
2022/11/10 08:05:44;;;;;;;1.90;1.40;;;;;;;;;;4978762;28;20498;-75
2022/11/10 08:08:11;;;;;;;3.83;2.20;;;;;;;;;;4966065;28;20061;-75
2022/11/10 08:10:38;;;;;;;3.80;1.65;;;;;;;;;;4964683;28;20047;-77
2022/11/10 08:13:05;;;;;;;3.35;1.60;;;;;;;;;;4977624;28;20160;-75
2022/11/10 08:15:33;;;;;;;4.65;2.33;;;;;;;;;;4972996;28;20059;-76
2022/11/10 08:18:07;;;;;;;4.57;1.50;;;;;;;;;;4976696;28;20039;-75
2022/11/10 08:20:33;;;;;;;7.78;1.80;;;;;;;;;;4978443;28;20042;-77
2022/11/10 08:23:01;;;;;;;3.92;2.03;;;;;;;;;;4964603;28;20030;-75
2022/11/10 08:25:28;;;;;;;3.50;1.70;;;;;;;;;;4976203;28;20035;-75
2022/11/10 08:28:01;;;;;;;4.63;1.88;;;;;;;;;;4971171;28;20035;-75
2022/11/10 08:30:28;;;;;;;5.10;2.13;;;;;;;;;;4967381;28;20424;-77
2022/11/10 08:32:55;;;;;;;6.15;1.88;;;;;;;;;;4967366;28;20035;-79
2022/11/10 08:35:22;;;;;;;5.07;1.75;;;;;;;;;;4984922;28;20118;-75
2022/11/10 08:37:48;;;;;;;2.90;1.60;;;;;;;;;;4969383;28;20050;-74
2022/11/10 08:40:14;;;;;;;4.43;1.60;;;;;;;;;;4967108;28;20035;-75
2022/11/10 08:42:40;;;;;;;3.22;1.80;;;;;;;;;;4965965;28;20689;-76
2022/11/10 08:45:07;;;;;;;3.40;1.80;;;;;;;;;;4965538;28;20031;-75
2022/11/10 08:47:33;;;;;;;4.05;1.88;;;;;;;;;;4969071;28;20031;-74
2022/11/10 08:49:59;;;;;;;3.95;1.77;;;;;;;;;;4983229;28;20792;-75
2022/11/10 08:52:25;;;;;;;4.93;2.45;;;;;;;;;;4965735;28;20030;-75
2022/11/10 08:54:51;;;;;;;2.15;1.80;;;;;;;;;;4967708;28;20449;-76
2022/11/10 08:57:17;;;;;;;7.15;2.20;;;;;;;;;;4983645;28;20027;-77
2022/11/10 08:59:43;;;;;;;4.35;1.90;;;;;;;;;;4970206;28;20109;-75
2022/11/10 09:02:10;;;;;;;4.00;1.85;;;;;;;;;;4984284;28;20086;-74
2022/11/10 09:04:36;;;;;;;4.38;1.73;;;;;;;;;;4969097;28;20023;-76
2022/11/10 09:07:02;;;;;;;4.47;1.70;;;;;;;;;;4973198;28;20034;-75
2022/11/10 09:09:28;;;;;;;3.38;1.42;;;;;;;;;;4970267;28;20089;-74
2022/11/10 09:11:56;;;;;;;3.88;1.60;;;;;;;;;;4986018;28;20057;-76
2022/11/10 09:14:22;;;;;;;2.55;1.55;;;;;;;;;;4971782;28;20038;-77
2022/11/10 09:16:48;;;;;;;4.70;1.90;;;;;;;;;;4967819;28;20106;-76
2022/11/10 09:19:14;;;;;;;4.78;1.80;;;;;;;;;;4969763;28;20031;-76
2022/11/10 09:21:40;;;;;;;1.50;1.40;;;;;;;;;;4968318;28;20511;-73
2022/11/10 09:24:07;;;;;;;2.05;1.40;;;;;;;;;;4984227;28;20027;-77
2022/11/10 09:26:33;;;;;;;5.15;1.50;;;;;;;;;;4969679;28;20030;-75
2022/11/10 09:28:59;;;;;;;2.92;1.55;;;;;;;;;;4982519;28;20019;-74
2022/11/10 09:31:25;;;;;;;2.78;1.48;;;;;;;;;;4982208;28;20026;-74
2022/11/10 09:33:51;;;;;;;3.03;1.55;;;;;;;;;;4968284;28;20494;-76
2022/11/10 09:36:17;;;;;;;1.40;1.20;;;;;;;;;;4968500;28;20053;-78
2022/11/10 09:38:43;;;;;;;2.28;1.52;;;;;;;;;;4984326;28;20427;-77
2022/11/10 09:41:12;;;;;;;3.20;1.35;;;;;;;;;;4984268;28;20034;-74
2022/11/10 09:43:38;;;;;;;2.63;1.33;;;;;;;;;;4968978;28;20027;-75
2022/11/10 09:46:09;;;;;;;2.90;1.65;;;;;;;;;;4970226;28;20019;-73
2022/11/10 09:48:38;;;;;;;2.47;1.50;;;;;;;;;;4967910;28;20030;-74
2022/11/10 09:51:13;;;;;;;3.58;1.42;;;;;;;;;;4969953;28;20035;-73
2022/11/10 09:53:42;;;;;;;2.25;1.90;;;;;;;;;;4971853;28;20027;-72
2022/11/10 09:56:11;;;;;;;2.17;1.45;;;;;;;;;;4968958;28;20028;-73
2022/11/10 09:58:40;;;;;;;2.85;1.60;;;;;;;;;;4969844;28;20479;-74
2022/11/10 10:01:12;;;;;;;5.55;1.70;;;;;;;;;;4969817;28;20037;-75
2022/11/10 10:03:44;;;;;;;2.85;1.55;;;;;;;;;;4983055;28;20178;-73
2022/11/10 10:06:12;;;;;;;3.50;1.80;;;;;;;;;;4967106;28;20030;-73
2022/11/10 10:08:38;;;;;;;2.80;2.13;;;;;;;;;;4966998;28;20027;-72
2022/11/10 10:11:22;;;;;;;3.15;1.52;;;;;;;;;;4984616;28;20069;-74
2022/11/10 10:14:04;;;;;;;2.97;1.50;;;;;;;;;;4981914;28;20062;-73
2022/11/10 10:16:37;;;;;;;3.05;2.00;;;;;;;;;;4967585;28;20022;-72
2022/11/10 10:19:15;;;;;;;3.40;1.48;;;;;;;;;;4967551;28;20031;-73
2022/11/10 10:21:53;;;;;;;3.30;1.90;;;;;;;;;;4982730;28;20058;-75
2022/11/10 10:24:20;;;;;;;4.35;1.83;;;;;;;;;;4982784;28;20035;-74
2022/11/10 10:27:06;;;;;;;6.25;2.00;;;;;;;;;;4969663;28;20065;-73
2022/11/10 10:29:37;;;;;;;4.30;1.80;;;;;;;;;;4970361;28;20396;-75
2022/11/10 10:32:04;;;;;;;5.20;1.95;;;;;;;;;;4979837;28;20057;-74
2022/11/10 10:34:33;;;;;;;3.60;1.50;;;;;;;;;;4968565;28;20023;-74
2022/11/10 10:37:00;;;;;;;2.58;1.45;;;;;;;;;;4982682;28;20038;-75
2022/11/10 10:39:31;;;;;;;5.85;2.38;;;;;;;;;;4984487;28;20030;-75
2022/11/10 10:41:57;;;;;;;4.38;2.13;;;;;;;;;;4967991;28;20078;-74
2022/11/10 10:44:23;;;;;;;5.82;2.05;;;;;;;;;;4968034;28;20411;-74
2022/11/10 10:46:52;;;;;;;3.70;2.63;;;;;;;;;;4968015;28;20088;-73
2022/11/10 10:49:19;;;;;;;4.75;2.00;;;;;;;;;;4969472;28;20047;-74
2022/11/10 10:51:46;;;;;;;8.00;2.10;;;;;;;;;;4966637;28;21364;-76
2022/11/10 10:54:31;;;;;;;5.63;2.40;;;;;;;;;;4968801;28;20852;-74
2022/11/10 10:57:16;;;;;;;5.82;2.20;;;;;;;;;;4982176;28;20037;-75
2022/11/10 10:59:42;;;;;;;7.90;2.33;;;;;;;;;;4968224;28;20511;-77
2022/11/10 11:02:26;;;;;;;5.38;2.47;;;;;;;;;;4982641;28;20027;-74
2022/11/10 11:05:12;;;;;;;5.90;2.60;;;;;;;;;;4966526;28;20046;-73
2022/11/10 11:07:39;;;;;;;9.13;3.08;;;;;;;;;;4979999;28;20035;-74
2022/11/10 11:10:25;;;;;;;9.85;2.40;;;;;;;;;;4964176;28;20061;-78
2022/11/10 11:12:52;;;;;;;6.60;2.53;;;;;;;;;;4981733;28;20019;-77
2022/11/10 11:15:19;;;;;;;4.60;2.10;;;;;;;;;;4966489;28;20563;-73
2022/11/10 11:17:55;;;;;;;8.52;3.30;;;;;;;;;;4967511;28;20474;-73
2022/11/10 11:20:25;;;;;;;7.25;2.70;;;;;;;;;;4968121;28;20106;-75
2022/11/10 11:23:06;;;;;;;6.43;2.90;;;;;;;;;;4980821;28;20045;-73
2022/11/10 11:25:33;;;;;;;6.13;2.35;;;;;;;;;;4981183;28;20071;-74
2022/11/10 11:28:18;;;;;;;12.13;3.13;;;;;;;;;;4969082;28;20089;-73
2022/11/10 11:31:03;;;;;;;9.80;2.80;;;;;;;;;;4964244;28;20035;-74
2022/11/10 11:33:35;;;;;;;8.48;3.00;;;;;;;;;;4964258;28;20042;-73
2022/11/10 11:36:20;;;;;;;7.85;3.00;;;;;;;;;;4977500;28;20041;-74
2022/11/10 11:38:52;;;;;;;10.07;3.25;;;;;;;;;;4965394;28;20487;-74
2022/11/10 11:41:21;;;;;;;12.02;4.90;;;;;;;;;;4966546;28;20041;-74
2022/11/10 11:43:50;;;;;;;9.07;3.33;;;;;;;;;;4961193;28;20027;-73
2022/11/10 11:46:20;;;;;;;5.03;2.40;;;;;;;;;;4963770;28;20026;-72
2022/11/10 11:49:02;;;;;;;7.47;2.92;;;;;;;;;;4964775;28;20059;-72
2022/11/10 11:51:55;;;;;;;5.82;2.58;;;;;;;;;;4978795;28;20034;-73
2022/11/10 11:54:40;;;;;;;8.88;2.90;;;;;;;;;;4977929;28;20901;-73
2022/11/10 11:57:24;;;;;;;6.82;3.20;;;;;;;;;;4980928;28;20037;-73
2022/11/10 11:59:51;;;;;;;7.82;2.72;;;;;;;;;;4962853;28;20031;-75
2022/11/10 12:02:35;;;;;;;7.78;3.10;;;;;;;;;;4966623;28;20484;-76
2022/11/10 12:05:01;;;;;;;11.57;3.70;;;;;;;;;;4974221;28;20035;-77
2022/11/10 12:07:41;;;;;;;7.47;3.65;;;;;;;;;;4966685;28;20031;-73
2022/11/10 12:10:17;;;;;;;9.35;2.95;;;;;;;;;;4966224;28;20138;-73
2022/11/10 12:12:43;;;;;;;10.85;3.22;;;;;;;;;;4967323;28;20033;-73
2022/11/10 12:15:35;;;;;;;10.75;3.13;;;;;;;;;;4966946;28;20035;-73
2022/11/10 12:18:13;;;;;;;8.48;2.85;;;;;;;;;;4963926;28;20488;-76
2022/11/10 12:20:47;;;;;;;8.32;3.55;;;;;;;;;;4977493;28;20846;-73
2022/11/10 12:23:33;;;;;;;5.80;2.85;;;;;;;;;;4979862;28;20034;-75
2022/11/10 12:26:18;;;;;;;10.98;3.33;;;;;;;;;;4967973;28;20022;-73
2022/11/10 12:28:51;;;;;;;7.28;2.60;;;;;;;;;;4981918;28;20037;-73
2022/11/10 12:31:20;;;;;;;5.68;3.17;;;;;;;;;;4978011;28;20054;-72
2022/11/10 12:33:55;;;;;;;12.45;2.95;;;;;;;;;;4966159;28;20058;-73
2022/11/10 12:36:22;;;;;;;6.75;2.30;;;;;;;;;;4968547;28;20506;-74
2022/11/10 12:39:13;;;;;;;15.05;3.13;;;;;;;;;;4983988;28;20113;-72
2022/11/10 12:41:43;;;;;;;7.93;3.45;;;;;;;;;;4983200;28;20027;-73
2022/11/10 12:44:22;;;;;;;7.75;3.17;;;;;;;;;;4985394;28;20480;-73
2022/11/10 12:46:50;;;;;;;9.23;3.05;;;;;;;;;;4968874;28;20054;-72
2022/11/10 12:49:19;;;;;;;8.85;2.60;;;;;;;;;;4968653;28;20042;-73
2022/11/10 12:51:51;;;;;;;5.03;2.50;;;;;;;;;;4967859;28;20030;-74
2022/11/10 12:54:18;;;;;;;7.80;2.60;;;;;;;;;;4983862;28;20130;-73
2022/11/10 12:56:53;;;;;;;8.20;2.72;;;;;;;;;;4966954;28;20023;-74
2022/11/10 12:59:19;;;;;;;7.18;2.90;;;;;;;;;;4967837;28;20035;-73
2022/11/10 13:01:46;;;;;;;5.82;2.00;;;;;;;;;;4965234;28;20551;-72
2022/11/10 13:04:16;;;;;;;5.57;2.47;;;;;;;;;;4969950;28;20046;-73
2022/11/10 13:06:48;;;;;;;4.03;2.15;;;;;;;;;;4981555;28;20583;-74
2022/11/10 13:09:24;;;;;;;5.95;1.90;;;;;;;;;;4969116;28;20477;-73
2022/11/10 13:12:11;;;;;;;4.03;1.95;;;;;;;;;;4968319;28;21579;-73
2022/11/10 13:14:37;;;;;;;6.00;2.30;;;;;;;;;;4968260;28;20459;-73
2022/11/10 13:17:04;;;;;;;6.05;2.40;;;;;;;;;;4985567;28;20038;-75
2022/11/10 13:19:33;;;;;;;6.90;3.13;;;;;;;;;;4970078;28;20239;-73
2022/11/10 13:21:59;;;;;;;4.78;2.60;;;;;;;;;;4971748;28;20169;-74
2022/11/10 13:24:30;;;;;;;5.78;2.95;;;;;;;;;;4970635;28;20559;-79
2022/11/10 13:27:01;;;;;;;7.45;2.88;;;;;;;;;;4969263;28;20037;-78
2022/11/10 13:29:33;;;;;;;8.55;2.60;;;;;;;;;;4986977;28;20034;-73
2022/11/10 13:32:20;;;;;;;6.05;2.20;;;;;;;;;;4966134;28;20024;-74
2022/11/10 13:34:46;;;;;;;6.32;2.28;;;;;;;;;;4964295;28;20089;-72
2022/11/10 13:37:31;;;;;;;5.03;2.15;;;;;;;;;;4967994;28;20356;-72
2022/11/10 13:40:16;;;;;;;8.57;2.78;;;;;;;;;;4984119;28;20085;-74
2022/11/10 13:42:43;;;;;;;8.02;3.20;;;;;;;;;;4967255;28;21513;-74
2022/11/10 13:45:28;;;;;;;9.27;2.47;;;;;;;;;;4980840;28;20062;-74
2022/11/10 13:47:57;;;;;;;6.28;2.22;;;;;;;;;;4968873;28;20054;-77
2022/11/10 13:50:28;;;;;;;6.93;2.28;;;;;;;;;;4983075;28;20279;-73
2022/11/10 13:52:57;;;;;;;13.82;2.70;;;;;;;;;;4966738;28;20019;-72
2022/11/10 13:55:23;;;;;;;10.23;2.83;;;;;;;;;;4968826;28;20425;-74
2022/11/10 13:57:56;;;;;;;8.00;3.03;;;;;;;;;;4969334;28;20121;-75
2022/11/10 14:00:27;;;;;;;7.22;2.58;;;;;;;;;;4985458;28;20038;-73
2022/11/10 14:02:59;;;;;;;5.80;2.63;;;;;;;;;;4969009;28;20035;-73
2022/11/10 14:05:29;;;;;;;9.82;3.35;;;;;;;;;;4968903;28;20429;-73
2022/11/10 14:08:07;;;;;;;13.70;4.03;;;;;;;;;;4965987;28;20034;-74
2022/11/10 14:10:42;;;;;;;8.75;3.40;;;;;;;;;;4969648;28;20038;-74
2022/11/10 14:13:14;;;;;;;7.38;3.30;;;;;;;;;;4982656;28;20403;-76
2022/11/10 14:15:45;;;;;;;6.45;2.40;;;;;;;;;;4984169;28;20038;-75
2022/11/10 14:18:16;;;;;;;12.00;2.88;;;;;;;;;;4966599;28;20022;-74
2022/11/10 14:20:44;;;;;;;7.93;3.92;;;;;;;;;;4967945;28;20071;-74
2022/11/10 14:23:19;;;;;;;11.25;4.15;;;;;;;;;;4968207;28;20035;-72
2022/11/10 14:25:51;;;;;;;13.93;2.97;;;;;;;;;;4967186;28;20034;-73
2022/11/10 14:28:36;;;;;;;10.77;3.10;;;;;;;;;;4983712;28;20101;-72
2022/11/10 14:31:02;;;;;;;10.68;3.15;;;;;;;;;;4967261;28;20478;-74
2022/11/10 14:33:28;;;;;;;8.00;3.85;;;;;;;;;;4982072;28;20031;-77
2022/11/10 14:36:01;;;;;;;8.20;3.17;;;;;;;;;;4968265;28;20027;-76
2022/11/10 14:38:34;;;;;;;9.85;3.20;;;;;;;;;;4969487;28;20023;-73
2022/11/10 14:41:01;;;;;;;8.00;3.45;;;;;;;;;;4982565;28;20041;-74
2022/11/10 14:43:28;;;;;;;12.80;3.40;;;;;;;;;;4983983;28;20027;-73
2022/11/10 14:45:54;;;;;;;12.18;3.08;;;;;;;;;;4969082;28;20097;-76
2022/11/10 14:48:31;;;;;;;8.63;3.13;;;;;;;;;;4968401;28;20093;-73
2022/11/10 14:51:11;;;;;;;12.52;3.50;;;;;;;;;;4966412;28;20399;-76
2022/11/10 14:53:38;;;;;;;8.00;3.33;;;;;;;;;;4969405;28;20121;-73
2022/11/10 14:56:07;;;;;;;11.68;3.38;;;;;;;;;;4968631;28;20050;-74
2022/11/10 14:58:40;;;;;;;6.45;2.65;;;;;;;;;;4982834;28;20030;-77
2022/11/10 15:01:07;;;;;;;11.20;2.75;;;;;;;;;;4967256;28;20475;-73
2022/11/10 15:03:40;;;;;;;10.75;3.88;;;;;;;;;;4966634;28;20027;-73
2022/11/10 15:06:11;;;;;;;11.52;3.05;;;;;;;;;;4982778;28;20050;-74